createdAt,value
2019-05-29T00:01:12.159Z,8.20
2019-05-29T00:03:38.182Z,8.10
2019-05-29T00:06:08.067Z,8.00
2019-05-29T00:08:36.896Z,8.00
2019-05-29T00:11:06.041Z,8.00
2019-05-29T00:13:34.856Z,7.90
2019-05-29T00:16:03.675Z,7.90
2019-05-29T00:18:32.393Z,8.00
2019-05-29T00:21:01.312Z,7.90
2019-05-29T00:23:30.059Z,7.80
2019-05-29T00:26:00.392Z,7.70
2019-05-29T00:28:29.119Z,7.70
2019-05-29T00:30:57.888Z,7.70
2019-05-29T00:33:26.633Z,7.60
2019-05-29T00:35:55.364Z,7.50
2019-05-29T00:38:24.124Z,7.40
2019-05-29T00:40:52.869Z,7.40
2019-05-29T00:43:21.591Z,7.40
2019-05-29T00:45:51.505Z,7.40
2019-05-29T00:48:20.261Z,7.30
2019-05-29T00:50:48.977Z,7.40
2019-05-29T00:53:18.401Z,7.40
2019-05-29T00:55:47.248Z,7.30
2019-05-29T00:58:17.095Z,7.40
2019-05-29T01:00:45.943Z,7.30
2019-05-29T01:03:15.879Z,7.30
2019-05-29T01:05:44.757Z,7.30
2019-05-29T01:08:14.487Z,7.30
2019-05-29T01:10:43.340Z,7.30
2019-05-29T01:13:13.125Z,7.30
2019-05-29T01:15:42.177Z,7.30
2019-05-29T01:18:11.730Z,7.30
2019-05-29T01:20:40.771Z,7.30
2019-05-29T01:23:09.605Z,7.30
2019-05-29T01:25:38.333Z,7.40
2019-05-29T01:28:07.054Z,7.40
2019-05-29T01:30:35.926Z,7.40
2019-05-29T01:33:04.639Z,7.30
2019-05-29T01:35:33.377Z,7.30
2019-05-29T01:38:02.109Z,7.20
2019-05-29T01:40:30.862Z,7.10
2019-05-29T01:42:59.676Z,7.10
2019-05-29T01:45:28.417Z,7.20
2019-05-29T01:47:57.144Z,7.20
2019-05-29T01:50:25.882Z,7.20
2019-05-29T01:52:54.651Z,7.20
2019-05-29T01:55:23.799Z,7.20
2019-05-29T01:57:52.726Z,7.10
2019-05-29T02:00:21.957Z,7.10
2019-05-29T02:02:50.782Z,7.10
2019-05-29T02:05:20.009Z,7.10
2019-05-29T02:07:48.966Z,7.00
2019-05-29T02:10:18.352Z,7.00
2019-05-29T02:12:47.161Z,6.90
2019-05-29T02:15:25.973Z,6.90
2019-05-29T02:17:46.569Z,6.80
2019-05-29T02:20:16.930Z,6.80
2019-05-29T02:22:45.664Z,6.80
2019-05-29T02:25:16.417Z,6.90
2019-05-29T02:27:44.894Z,6.90
2019-05-29T02:30:13.958Z,6.70
2019-05-29T02:32:44.596Z,6.60
2019-05-29T02:35:13.289Z,6.60
2019-05-29T02:37:42.123Z,6.70
2019-05-29T02:40:11.017Z,6.50
2019-05-29T02:42:39.750Z,6.50
2019-05-29T02:45:09.814Z,6.50
2019-05-29T02:47:38.660Z,6.40
2019-05-29T02:50:09.085Z,6.40
2019-05-29T02:52:37.835Z,6.30
2019-05-29T02:55:08.267Z,6.40
2019-05-29T02:57:37.006Z,6.40
2019-05-29T03:00:07.831Z,6.50
2019-05-29T03:02:36.585Z,6.50
2019-05-29T03:05:07.170Z,6.50
2019-05-29T03:07:36.445Z,6.40
2019-05-29T03:10:07.266Z,6.30
2019-05-29T03:12:36.314Z,6.20
2019-05-29T03:15:08.378Z,6.20
2019-05-29T03:17:37.108Z,6.20
2019-05-29T03:20:07.530Z,6.10
2019-05-29T03:22:36.292Z,6.10
2019-05-29T03:25:08.308Z,6.10
2019-05-29T03:27:38.348Z,6.10
2019-05-29T03:30:07.799Z,6.10
2019-05-29T03:32:43.891Z,6.10
2019-05-29T03:35:07.932Z,6.10
2019-05-29T03:37:38.481Z,6.20
2019-05-29T03:40:07.488Z,6.20
2019-05-29T03:42:36.237Z,6.20
2019-05-29T03:45:06.075Z,6.20
2019-05-29T03:47:35.090Z,6.30
2019-05-29T03:50:06.726Z,6.30
2019-05-29T03:52:35.557Z,6.30
2019-05-29T03:55:06.638Z,6.40
2019-05-29T03:57:35.865Z,6.40
2019-05-29T04:00:06.989Z,6.30
2019-05-29T04:02:37.908Z,6.30
2019-05-29T04:05:06.949Z,6.20
2019-05-29T04:07:37.420Z,6.20
2019-05-29T04:10:07.266Z,6.20
2019-05-29T04:12:37.792Z,6.30
2019-05-29T04:15:08.449Z,6.20
2019-05-29T04:17:39.127Z,6.20
2019-05-29T04:20:08.233Z,6.20
2019-05-29T04:22:42.837Z,6.20
2019-05-29T04:25:12.166Z,6.20
2019-05-29T04:27:42.771Z,6.20
2019-05-29T04:30:12.201Z,6.20
2019-05-29T04:32:40.933Z,6.20
2019-05-29T04:35:09.766Z,6.20
2019-05-29T04:37:39.951Z,6.30
2019-05-29T04:40:09.958Z,6.40
2019-05-29T04:42:40.001Z,6.30
2019-05-29T04:45:09.392Z,6.30
2019-05-29T04:47:39.547Z,6.20
2019-05-29T04:50:08.929Z,6.20
2019-05-29T04:52:38.338Z,6.20
2019-05-29T04:55:08.529Z,6.30
2019-05-29T04:57:37.320Z,6.40
2019-05-29T05:00:07.623Z,6.50
2019-05-29T05:02:37.260Z,6.50
2019-05-29T05:05:06.661Z,6.60
2019-05-29T05:07:35.489Z,6.70
2019-05-29T05:10:05.836Z,6.70
2019-05-29T05:12:35.689Z,6.80
2019-05-29T05:15:05.818Z,6.90
2019-05-29T05:17:35.909Z,7.00
2019-05-29T05:20:05.808Z,7.00
2019-05-29T05:22:34.578Z,7.10
2019-05-29T05:25:04.051Z,7.10
2019-05-29T05:27:32.786Z,7.20
2019-05-29T05:30:01.636Z,7.30
2019-05-29T05:32:30.616Z,7.30
2019-05-29T05:34:59.443Z,7.30
2019-05-29T05:37:28.186Z,7.30
2019-05-29T05:39:56.974Z,7.30
2019-05-29T05:42:25.816Z,7.40
2019-05-29T05:44:54.575Z,7.40
2019-05-29T05:47:23.405Z,7.50
2019-05-29T05:49:52.145Z,7.60
2019-05-29T05:52:20.880Z,7.70
2019-05-29T05:54:49.619Z,7.80
2019-05-29T05:57:18.373Z,7.90
2019-05-29T05:59:47.147Z,8.00
2019-05-29T06:02:15.963Z,8.00
2019-05-29T06:04:44.694Z,8.10
2019-05-29T06:07:13.524Z,8.10
2019-05-29T06:09:42.585Z,8.10
2019-05-29T06:12:11.410Z,8.20
2019-05-29T06:14:40.670Z,8.20
2019-05-29T06:17:09.467Z,8.30
2019-05-29T06:19:38.984Z,8.40
2019-05-29T06:22:07.873Z,8.50
2019-05-29T06:24:37.222Z,8.50
2019-05-29T06:27:06.160Z,8.60
2019-05-29T06:29:35.214Z,8.60
2019-05-29T06:32:04.084Z,8.60
2019-05-29T06:34:33.559Z,8.60
2019-05-29T06:37:02.418Z,8.70
2019-05-29T06:39:31.190Z,8.80
2019-05-29T06:41:59.999Z,8.80
2019-05-29T06:44:28.739Z,8.80
2019-05-29T06:46:57.461Z,8.80
2019-05-29T06:49:26.221Z,8.80
2019-05-29T06:51:56.090Z,8.80
2019-05-29T06:54:24.774Z,8.90
2019-05-29T06:56:53.604Z,8.90
2019-05-29T06:59:22.339Z,9.00
2019-05-29T07:01:51.068Z,8.80
2019-05-29T07:04:19.846Z,8.80
2019-05-29T07:06:48.559Z,8.90
2019-05-29T07:09:17.278Z,8.90
2019-05-29T07:11:47.433Z,9.10
2019-05-29T07:14:17.379Z,9.20
2019-05-29T07:16:55.537Z,9.10
2019-05-29T07:19:25.722Z,9.10
2019-05-29T07:21:47.262Z,9.30
2019-05-29T07:24:16.177Z,9.40
2019-05-29T07:26:45.497Z,9.50
2019-05-29T07:29:14.704Z,9.60
2019-05-29T07:31:43.407Z,9.60
2019-05-29T07:34:12.188Z,9.60
2019-05-29T07:36:41.929Z,9.80
2019-05-29T07:39:10.961Z,9.90
2019-05-29T07:41:39.780Z,10.00
2019-05-29T07:44:08.607Z,10.00
2019-05-29T07:46:37.902Z,10.10
2019-05-29T07:49:06.694Z,10.20
2019-05-29T07:51:35.462Z,10.20
2019-05-29T07:54:04.275Z,10.30
2019-05-29T07:56:33.060Z,10.30
2019-05-29T07:59:03.616Z,10.40
2019-05-29T08:01:32.269Z,10.40
2019-05-29T08:04:01.165Z,10.40
2019-05-29T08:06:29.996Z,10.40
2019-05-29T08:08:58.728Z,10.40
2019-05-29T08:11:27.483Z,10.40
2019-05-29T08:13:56.218Z,10.60
2019-05-29T08:16:24.965Z,10.70
2019-05-29T08:18:53.708Z,10.70
2019-05-29T08:21:22.493Z,10.80
2019-05-29T08:23:51.214Z,10.80
2019-05-29T08:26:19.949Z,10.80
2019-05-29T08:28:48.958Z,10.80
2019-05-29T08:31:17.874Z,10.90
2019-05-29T08:33:46.832Z,10.90
2019-05-29T08:36:15.643Z,10.90
2019-05-29T08:38:45.793Z,10.90
2019-05-29T08:41:14.679Z,10.90
2019-05-29T08:43:45.204Z,11.00
2019-05-29T08:46:13.954Z,10.90
2019-05-29T08:48:43.689Z,11.00
2019-05-29T08:51:12.620Z,10.90
2019-05-29T08:53:42.529Z,10.80
2019-05-29T08:56:11.715Z,10.90
2019-05-29T08:58:40.772Z,11.00
2019-05-29T09:01:09.535Z,11.10
2019-05-29T09:03:38.264Z,11.10
2019-05-29T09:06:09.656Z,11.20
2019-05-29T09:08:37.485Z,11.40
2019-05-29T09:11:06.279Z,11.30
2019-05-29T09:13:35.030Z,11.40
2019-05-29T09:16:03.771Z,11.40
2019-05-29T09:18:32.623Z,11.50
2019-05-29T09:21:03.730Z,11.60
2019-05-29T09:23:31.738Z,11.50
2019-05-29T09:26:14.034Z,11.40
2019-05-29T09:28:29.660Z,11.50
2019-05-29T09:30:58.403Z,11.50
2019-05-29T09:33:27.164Z,11.60
2019-05-29T09:35:55.907Z,11.60
2019-05-29T09:38:25.076Z,11.70
2019-05-29T09:40:54.212Z,11.70
2019-05-29T09:43:27.938Z,11.80
2019-05-29T09:45:55.249Z,11.80
2019-05-29T09:48:26.876Z,11.80
2019-05-29T09:50:54.186Z,11.70
2019-05-29T09:53:22.920Z,11.60
2019-05-29T09:55:52.282Z,11.50
2019-05-29T09:58:22.328Z,11.50
2019-05-29T10:01:09.838Z,11.60
2019-05-29T10:03:21.515Z,11.60
2019-05-29T10:05:50.312Z,11.50
2019-05-29T10:08:19.056Z,11.70
2019-05-29T10:10:47.930Z,11.70
2019-05-29T10:13:16.976Z,11.80
2019-05-29T10:15:45.805Z,11.70
2019-05-29T10:18:31.501Z,11.90
2019-05-29T10:20:44.872Z,11.90
2019-05-29T10:23:13.612Z,12.10
2019-05-29T10:25:42.353Z,12.20
2019-05-29T10:28:11.216Z,12.30
2019-05-29T10:30:39.932Z,12.30
2019-05-29T10:33:08.686Z,12.30
2019-05-29T10:35:37.512Z,12.30
2019-05-29T10:38:06.293Z,12.40
2019-05-29T10:40:35.033Z,12.60
2019-05-29T10:43:03.869Z,12.60
2019-05-29T10:45:32.605Z,12.70
2019-05-29T10:48:01.341Z,12.70
2019-05-29T10:50:30.117Z,12.80
2019-05-29T10:52:58.838Z,12.90
2019-05-29T10:55:27.643Z,12.90
2019-05-29T10:57:56.489Z,13.00
2019-05-29T11:00:25.343Z,13.10
2019-05-29T11:02:55.835Z,13.10
2019-05-29T11:05:24.469Z,13.10
2019-05-29T11:07:53.965Z,13.10
2019-05-29T11:10:23.164Z,13.10
2019-05-29T11:12:52.642Z,13.20
2019-05-29T11:15:22.185Z,13.30
2019-05-29T11:17:51.386Z,13.50
2019-05-29T11:20:21.196Z,13.60
2019-05-29T11:22:49.942Z,13.80
2019-05-29T11:25:23.659Z,13.90
2019-05-29T11:27:53.025Z,14.00
2019-05-29T11:30:20.149Z,14.10
2019-05-29T11:32:50.892Z,14.10
2019-05-29T11:35:20.155Z,14.10
2019-05-29T11:37:50.285Z,14.20
2019-05-29T11:40:19.562Z,14.20
2019-05-29T11:42:48.436Z,13.90
2019-05-29T11:45:18.282Z,13.90
2019-05-29T11:47:47.139Z,14.00
2019-05-29T11:50:19.943Z,14.20
2019-05-29T11:52:47.120Z,14.10
2019-05-29T11:55:16.229Z,14.00
2019-05-29T11:57:45.020Z,14.10
2019-05-29T12:00:20.161Z,14.00
2019-05-29T12:02:47.373Z,14.10
2019-05-29T12:05:16.499Z,14.00
2019-05-29T12:07:45.242Z,14.20
2019-05-29T12:10:14.641Z,14.20
2019-05-29T12:12:43.463Z,14.10
2019-05-29T12:15:16.707Z,14.10
2019-05-29T12:17:43.410Z,14.20
2019-05-29T12:20:27.309Z,14.20
2019-05-29T12:23:07.121Z,14.00
2019-05-29T12:25:32.980Z,14.00
2019-05-29T12:28:03.231Z,13.90
2019-05-29T12:30:32.710Z,14.10
2019-05-29T12:33:01.454Z,13.90
2019-05-29T12:35:30.181Z,14.00
2019-05-29T12:37:59.415Z,14.10
2019-05-29T12:40:28.290Z,13.90
2019-05-29T12:42:57.506Z,13.80
2019-05-29T12:45:26.492Z,14.00
2019-05-29T12:47:56.521Z,14.10
2019-05-29T12:50:25.895Z,14.00
2019-05-29T12:52:55.702Z,13.90
2019-05-29T12:55:24.657Z,13.90
2019-05-29T12:57:53.819Z,13.70
2019-05-29T13:00:23.137Z,13.90
2019-05-29T13:02:51.874Z,14.00
2019-05-29T13:05:21.198Z,13.90
2019-05-29T13:07:49.967Z,13.70
2019-05-29T13:10:30.190Z,13.40
2019-05-29T13:12:49.869Z,13.40
2019-05-29T13:15:19.333Z,13.20
2019-05-29T13:17:48.086Z,13.20
2019-05-29T13:20:21.448Z,13.10
2019-05-29T13:22:47.578Z,13.10
2019-05-29T13:25:16.306Z,13.00
2019-05-29T13:27:45.031Z,13.00
2019-05-29T13:30:15.716Z,13.10
2019-05-29T13:32:44.579Z,13.30
2019-05-29T13:35:14.053Z,13.20
2019-05-29T13:37:43.029Z,13.30
2019-05-29T13:40:12.164Z,13.20
2019-05-29T13:42:40.973Z,13.40
2019-05-29T13:45:17.801Z,13.30
2019-05-29T13:47:40.919Z,13.30
2019-05-29T13:50:12.279Z,13.30
2019-05-29T13:52:40.402Z,13.50
2019-05-29T13:55:09.742Z,13.50
2019-05-29T13:57:39.986Z,13.40
2019-05-29T14:02:43.933Z,13.40
2019-05-29T14:05:15.597Z,13.40
2019-05-29T14:07:44.430Z,13.40
2019-05-29T14:10:13.736Z,13.30
2019-05-29T14:12:42.500Z,13.20
2019-05-29T14:15:13.084Z,13.10
2019-05-29T14:17:41.867Z,13.30
2019-05-29T14:20:11.322Z,13.20
2019-05-29T14:22:40.110Z,13.10
2019-05-29T14:25:11.517Z,13.10
2019-05-29T14:27:41.525Z,13.00
2019-05-29T14:30:13.972Z,12.80
2019-05-29T14:32:42.627Z,12.80
2019-05-29T14:35:13.272Z,12.60
2019-05-29T14:37:41.855Z,12.70
2019-05-29T14:40:12.127Z,12.80
2019-05-29T14:42:41.117Z,12.80
2019-05-29T14:45:10.583Z,12.90
2019-05-29T14:47:39.459Z,12.80
2019-05-29T14:50:09.087Z,12.80
2019-05-29T14:52:38.243Z,12.50
2019-05-29T14:55:08.977Z,12.40
2019-05-29T14:57:38.533Z,12.40
2019-05-29T15:00:21.067Z,12.50
2019-05-29T15:02:40.712Z,12.30
2019-05-29T15:05:10.037Z,12.50
2019-05-29T15:07:38.757Z,12.40
2019-05-29T15:10:19.663Z,12.40
2019-05-29T15:12:38.931Z,12.40
2019-05-29T15:15:08.994Z,12.30
2019-05-29T15:17:38.269Z,12.30
2019-05-29T15:20:09.723Z,12.30
2019-05-29T15:22:38.916Z,12.40
2019-05-29T15:25:17.433Z,12.40
2019-05-29T15:27:38.613Z,12.60
2019-05-29T15:30:13.609Z,12.60
2019-05-29T15:32:41.570Z,12.70
2019-05-29T15:35:14.850Z,12.70
2019-05-29T15:37:43.184Z,12.70
2019-05-29T15:40:14.777Z,12.80
2019-05-29T15:42:43.819Z,12.80
2019-05-29T15:45:14.016Z,13.00
2019-05-29T15:47:42.950Z,13.10
2019-05-29T15:50:13.620Z,13.20
2019-05-29T15:52:43.080Z,13.10
2019-05-29T15:55:24.809Z,13.20
2019-05-29T15:57:42.916Z,13.20
2019-05-29T16:00:13.914Z,13.30
2019-05-29T16:02:42.689Z,13.30
2019-05-29T16:05:15.357Z,13.40
2019-05-29T16:07:44.405Z,13.60
2019-05-29T16:10:16.711Z,13.60
2019-05-29T16:12:44.762Z,13.70
2019-05-29T16:15:15.197Z,13.80
2019-05-29T16:17:44.262Z,13.80
2019-05-29T16:20:14.689Z,13.80
2019-05-29T16:22:43.723Z,13.70
2019-05-29T16:25:14.829Z,13.60
2019-05-29T16:27:43.845Z,13.50
2019-05-29T16:30:13.710Z,13.60
2019-05-29T16:32:42.475Z,13.40
2019-05-29T16:35:12.941Z,13.60
2019-05-29T16:37:41.877Z,13.70
2019-05-29T16:40:15.923Z,13.70
2019-05-29T16:42:45.042Z,13.80
2019-05-29T16:45:26.217Z,13.80
2019-05-29T16:47:46.426Z,13.80
2019-05-29T16:50:17.400Z,13.90
2019-05-29T16:52:46.371Z,13.60
2019-05-29T16:55:15.200Z,13.70
2019-05-29T16:57:43.955Z,13.90
2019-05-29T17:00:13.957Z,14.20
2019-05-29T17:02:45.918Z,14.20
2019-05-29T17:05:15.785Z,14.20
2019-05-29T17:07:44.657Z,13.90
2019-05-29T17:10:14.299Z,14.00
2019-05-29T17:12:43.314Z,14.00
2019-05-29T17:15:14.981Z,14.10
2019-05-29T17:17:44.027Z,14.30
2019-05-29T17:20:14.542Z,14.20
2019-05-29T17:22:43.613Z,14.20
2019-05-29T17:25:12.622Z,14.20
2019-05-29T17:27:41.365Z,14.10
2019-05-29T17:30:10.482Z,13.90
2019-05-29T17:32:39.218Z,14.00
2019-05-29T17:35:09.053Z,13.80
2019-05-29T17:37:38.229Z,13.60
2019-05-29T17:40:07.350Z,13.60
2019-05-29T17:42:36.104Z,13.60
2019-05-29T17:45:07.707Z,13.70
2019-05-29T17:47:36.548Z,13.60
2019-05-29T17:50:09.084Z,13.60
2019-05-29T17:52:37.905Z,13.40
2019-05-29T17:55:09.766Z,13.40
2019-05-29T17:57:39.727Z,13.40
2019-05-29T18:00:18.443Z,13.30
2019-05-29T18:02:52.140Z,13.30
2019-05-29T18:05:18.448Z,13.20
2019-05-29T18:07:47.364Z,13.10
2019-05-29T18:10:20.270Z,13.00
2019-05-29T18:12:47.361Z,12.80
2019-05-29T18:15:17.196Z,12.90
2019-05-29T18:17:46.005Z,12.90
2019-05-29T18:20:15.538Z,12.90
2019-05-29T18:22:44.349Z,12.70
2019-05-29T18:25:13.261Z,12.60
2019-05-29T18:27:43.848Z,12.50
2019-05-29T18:30:13.557Z,12.50
2019-05-29T18:32:42.338Z,12.40
2019-05-29T18:35:11.151Z,12.40
2019-05-29T18:37:39.965Z,12.40
2019-05-29T18:40:12.653Z,12.40
2019-05-29T18:42:40.949Z,12.30
2019-05-29T18:45:20.133Z,12.30
2019-05-29T18:47:42.098Z,12.30
2019-05-29T18:50:11.731Z,12.20
2019-05-29T18:52:40.564Z,12.20
2019-05-29T18:55:10.061Z,12.30
2019-05-29T18:57:38.856Z,12.10
2019-05-29T19:00:09.756Z,12.00
2019-05-29T19:02:38.588Z,11.90
2019-05-29T19:05:07.800Z,11.90
2019-05-29T19:07:36.530Z,11.90
2019-05-29T19:10:08.626Z,11.80
2019-05-29T19:12:37.363Z,11.80
2019-05-29T19:15:08.902Z,11.80
2019-05-29T19:17:37.661Z,11.80
2019-05-29T19:20:07.310Z,11.70
2019-05-29T19:22:36.049Z,11.70
2019-05-29T19:25:06.410Z,11.60
2019-05-29T19:27:41.694Z,11.60
2019-05-29T19:30:12.162Z,11.60
2019-05-29T19:32:40.955Z,11.60
2019-05-29T19:35:10.465Z,11.60
2019-05-29T19:37:39.314Z,11.60
2019-05-29T19:40:08.520Z,11.60
2019-05-29T19:42:37.350Z,11.60
2019-05-29T19:45:09.599Z,11.60
2019-05-29T19:47:38.409Z,11.50
2019-05-29T19:50:11.200Z,11.50
2019-05-29T19:52:39.063Z,11.50
2019-05-29T19:55:08.107Z,11.50
2019-05-29T19:57:52.616Z,11.40
2019-05-29T20:00:10.268Z,11.40
2019-05-29T20:02:40.050Z,11.40
2019-05-29T20:05:09.163Z,11.40
2019-05-29T20:07:38.392Z,11.40
2019-05-29T20:10:08.769Z,11.40
2019-05-29T20:12:38.158Z,11.40
2019-05-29T20:15:07.739Z,11.40
2019-05-29T20:17:36.505Z,11.40
2019-05-29T20:20:08.455Z,11.30
2019-05-29T20:22:37.213Z,11.40
2019-05-29T20:25:07.659Z,11.30
2019-05-29T20:27:36.496Z,11.30
2019-05-29T20:30:07.200Z,11.20
2019-05-29T20:32:36.834Z,11.10
2019-05-29T20:35:06.367Z,11.10
2019-05-29T20:37:36.154Z,11.10
2019-05-29T20:40:06.687Z,11.00
2019-05-29T20:42:36.345Z,11.00
2019-05-29T20:45:09.422Z,10.90
2019-05-29T20:47:38.172Z,10.80
2019-05-29T20:50:08.015Z,10.80
2019-05-29T20:52:37.354Z,10.90
2019-05-29T20:55:07.153Z,10.80
2019-05-29T20:57:35.997Z,10.90
2019-05-29T21:00:13.023Z,10.90
2019-05-29T21:02:42.477Z,10.90
2019-05-29T21:05:12.003Z,10.90
2019-05-29T21:07:41.094Z,11.00
2019-05-29T21:10:10.479Z,11.00
2019-05-29T21:12:44.089Z,11.00
2019-05-29T21:15:09.957Z,11.00
2019-05-29T21:17:39.863Z,11.00
2019-05-29T21:20:09.128Z,11.00
2019-05-29T21:22:38.557Z,11.00
2019-05-29T21:25:12.377Z,11.00
2019-05-29T21:27:42.985Z,11.10
2019-05-29T21:30:10.365Z,11.10
2019-05-29T21:32:40.210Z,11.10
2019-05-29T21:35:09.484Z,11.10
2019-05-29T21:37:38.333Z,11.00
2019-05-29T21:40:08.074Z,11.10
2019-05-29T21:42:36.798Z,11.00
2019-05-29T21:45:06.883Z,11.00
2019-05-29T21:47:36.910Z,10.90
2019-05-29T21:50:07.282Z,11.00
2019-05-29T21:52:37.373Z,11.00
2019-05-29T21:55:09.417Z,11.00
2019-05-29T21:57:41.322Z,11.00
2019-05-29T22:00:11.916Z,11.00
2019-05-29T22:02:42.163Z,11.00
2019-05-29T22:05:11.731Z,11.00
2019-05-29T22:07:40.728Z,11.00
2019-05-29T22:10:10.274Z,11.00
2019-05-29T22:12:39.067Z,11.00
2019-05-29T22:15:08.205Z,11.00
2019-05-29T22:17:36.931Z,11.00
2019-05-29T22:20:07.574Z,11.00
2019-05-29T22:22:36.341Z,11.00
2019-05-29T22:25:07.320Z,11.00
2019-05-29T22:27:36.914Z,11.00
2019-05-29T22:30:06.842Z,11.00
2019-05-29T22:32:35.569Z,10.90
2019-05-29T22:35:06.977Z,10.90
2019-05-29T22:37:35.732Z,11.00
2019-05-29T22:40:08.544Z,11.10
2019-05-29T22:42:37.275Z,11.10
2019-05-29T22:45:06.799Z,11.10
2019-05-29T22:47:35.514Z,11.10
2019-05-29T22:50:08.702Z,11.10
2019-05-29T22:52:37.548Z,11.00
2019-05-29T22:55:06.982Z,11.10
2019-05-29T22:57:35.805Z,11.00
2019-05-29T23:00:07.704Z,11.00
2019-05-29T23:02:36.502Z,11.00
2019-05-29T23:05:06.908Z,11.00
2019-05-29T23:07:35.659Z,10.90
2019-05-29T23:10:07.128Z,10.90
2019-05-29T23:12:35.940Z,10.90
2019-05-29T23:15:06.387Z,10.90
2019-05-29T23:17:35.142Z,10.90
2019-05-29T23:20:05.662Z,11.00
2019-05-29T23:22:34.392Z,11.00
2019-05-29T23:25:03.314Z,11.00
2019-05-29T23:27:32.182Z,11.10
2019-05-29T23:30:01.142Z,11.10
2019-05-29T23:32:29.998Z,11.20
2019-05-29T23:34:59.145Z,11.20
2019-05-29T23:37:28.073Z,11.20
2019-05-29T23:39:57.149Z,11.20
2019-05-29T23:42:25.953Z,11.20
2019-05-29T23:44:55.842Z,11.20
2019-05-29T23:47:24.765Z,11.10
2019-05-29T23:49:53.588Z,11.10
2019-05-29T23:52:22.359Z,11.10
2019-05-29T23:54:51.161Z,11.10
2019-05-29T23:57:19.890Z,11.10
